createdAt,value
2018-02-03T00:00:58.552Z,63.96
2018-02-03T00:03:26.067Z,63.92
2018-02-03T00:05:53.518Z,63.39
2018-02-03T00:08:20.998Z,63.41
2018-02-03T00:10:48.452Z,63.17
2018-02-03T00:13:15.974Z,63.22
2018-02-03T00:15:43.453Z,63.43
2018-02-03T00:18:10.911Z,63.09
2018-02-03T00:20:38.385Z,62.84
2018-02-03T00:23:05.868Z,62.64
2018-02-03T00:25:33.343Z,62.60
2018-02-03T00:28:00.880Z,62.50
2018-02-03T00:30:28.323Z,62.38
2018-02-03T00:32:55.792Z,62.37
2018-02-03T00:35:23.248Z,62.56
2018-02-03T00:37:50.718Z,62.81
2018-02-03T00:40:18.224Z,62.77
2018-02-03T00:42:45.677Z,62.96
2018-02-03T00:45:13.149Z,62.66
2018-02-03T00:47:40.616Z,62.91
2018-02-03T00:50:08.137Z,63.04
2018-02-03T00:52:35.584Z,63.34
2018-02-03T00:55:03.349Z,63.34
2018-02-03T00:57:30.809Z,62.78
2018-02-03T00:59:58.476Z,62.69
2018-02-03T01:02:25.958Z,62.69
2018-02-03T01:04:53.423Z,62.60
2018-02-03T01:07:20.896Z,62.42
2018-02-03T01:09:48.383Z,62.73
2018-02-03T01:12:15.978Z,62.63
2018-02-03T01:14:43.447Z,62.53
2018-02-03T01:17:10.896Z,62.89
2018-02-03T01:19:38.340Z,63.22
2018-02-03T01:22:05.823Z,62.76
2018-02-03T01:24:33.294Z,62.84
2018-02-03T01:27:00.769Z,62.53
2018-02-03T01:29:28.259Z,62.75
2018-02-03T01:31:55.694Z,62.41
2018-02-03T01:34:23.175Z,62.84
2018-02-03T01:36:50.624Z,62.38
2018-02-03T01:39:18.075Z,62.23
2018-02-03T01:41:45.619Z,61.69
2018-02-03T01:44:13.414Z,61.44
2018-02-03T01:46:40.875Z,61.79
2018-02-03T01:49:08.339Z,61.37
2018-02-03T01:51:35.785Z,61.81
2018-02-03T01:54:03.248Z,61.10
2018-02-03T01:56:30.704Z,61.51
2018-02-03T01:58:58.165Z,62.02
2018-02-03T02:01:25.624Z,61.82
2018-02-03T02:03:53.074Z,61.67
2018-02-03T02:06:20.582Z,60.85
2018-02-03T02:08:48.019Z,61.36
2018-02-03T02:11:15.466Z,60.95
2018-02-03T02:13:42.910Z,61.35
2018-02-03T02:16:10.371Z,61.11
2018-02-03T02:18:37.808Z,61.20
2018-02-03T02:21:05.306Z,61.49
2018-02-03T02:23:32.743Z,61.56
2018-02-03T02:26:00.178Z,60.91
2018-02-03T02:28:27.688Z,60.41
2018-02-03T02:30:55.141Z,60.42
2018-02-03T02:33:22.598Z,60.21
2018-02-03T02:35:50.061Z,60.40
2018-02-03T02:38:17.606Z,60.38
2018-02-03T02:40:45.023Z,60.17
2018-02-03T02:43:12.488Z,59.69
2018-02-03T02:45:39.941Z,59.71
2018-02-03T02:48:07.420Z,59.53
2018-02-03T02:50:34.926Z,59.83
2018-02-03T02:53:02.347Z,60.00
2018-02-03T02:55:29.807Z,59.85
2018-02-03T02:57:57.467Z,59.68
2018-02-03T03:00:24.931Z,59.36
2018-02-03T03:02:52.369Z,59.63
2018-02-03T03:05:19.827Z,59.61
2018-02-03T03:07:47.255Z,59.60
2018-02-03T03:10:14.722Z,59.76
2018-02-03T03:12:42.175Z,59.15
2018-02-03T03:15:09.748Z,59.18
2018-02-03T03:17:37.204Z,59.04
2018-02-03T03:20:04.662Z,58.87
2018-02-03T03:22:32.135Z,59.16
2018-02-03T03:24:59.605Z,59.12
2018-02-03T03:27:27.050Z,58.91
2018-02-03T03:29:54.510Z,58.46
2018-02-03T03:32:21.993Z,59.01
2018-02-03T03:34:49.483Z,58.59
2018-02-03T03:37:16.956Z,58.41
2018-02-03T03:39:44.427Z,58.23
2018-02-03T03:42:11.875Z,58.37
2018-02-03T03:44:39.334Z,58.10
2018-02-03T03:47:06.763Z,58.33
2018-02-03T03:49:34.379Z,58.21
2018-02-03T03:52:01.840Z,58.40
2018-02-03T03:54:29.287Z,58.35
2018-02-03T03:56:56.747Z,58.30
2018-02-03T03:59:24.231Z,58.57
2018-02-03T04:01:51.679Z,58.65
2018-02-03T04:04:19.127Z,58.95
2018-02-03T04:06:46.577Z,58.68
2018-02-03T04:09:14.015Z,58.80
2018-02-03T04:11:41.476Z,58.45
2018-02-03T04:14:08.936Z,58.58
2018-02-03T04:16:36.388Z,58.56
2018-02-03T04:19:03.904Z,58.28
2018-02-03T04:21:31.370Z,58.42
2018-02-03T04:23:58.879Z,58.37
2018-02-03T04:26:26.375Z,58.50
2018-02-03T04:28:53.852Z,58.60
2018-02-03T04:31:21.306Z,58.88
2018-02-03T04:33:48.751Z,58.80
2018-02-03T04:36:16.208Z,58.81
2018-02-03T04:38:43.666Z,59.00
2018-02-03T04:41:11.123Z,59.00
2018-02-03T04:43:38.578Z,58.83
2018-02-03T04:46:06.039Z,58.49
2018-02-03T04:48:33.491Z,59.02
2018-02-03T04:51:00.947Z,59.30
2018-02-03T04:53:28.404Z,58.99
2018-02-03T04:55:55.850Z,58.96
2018-02-03T04:58:23.305Z,59.07
2018-02-03T05:00:50.771Z,59.19
2018-02-03T05:03:18.201Z,59.27
2018-02-03T05:05:45.686Z,59.48
2018-02-03T05:08:13.430Z,59.12
2018-02-03T05:10:40.879Z,59.25
2018-02-03T05:13:08.355Z,59.41
2018-02-03T05:15:35.839Z,59.54
2018-02-03T05:18:03.304Z,59.54
2018-02-03T05:20:30.764Z,59.38
2018-02-03T05:22:58.214Z,59.30
2018-02-03T05:25:25.721Z,59.71
2018-02-03T05:27:53.199Z,59.74
2018-02-03T05:30:20.648Z,59.66
2018-02-03T05:32:48.117Z,60.07
2018-02-03T05:35:15.574Z,59.93
2018-02-03T05:37:43.063Z,59.65
2018-02-03T05:40:10.538Z,59.72
2018-02-03T05:42:37.997Z,59.40
2018-02-03T05:45:08.351Z,59.57
2018-02-03T05:47:35.828Z,59.77
2018-02-03T05:50:03.299Z,59.90
2018-02-03T05:52:30.953Z,60.00
2018-02-03T05:54:58.391Z,59.92
2018-02-03T05:57:25.868Z,60.26
2018-02-03T05:59:53.335Z,60.27
2018-02-03T06:02:20.912Z,60.28
2018-02-03T06:04:48.369Z,60.69
2018-02-03T06:07:15.837Z,60.63
2018-02-03T06:09:43.278Z,60.45
2018-02-03T06:12:10.767Z,60.66
2018-02-03T06:14:38.333Z,61.29
2018-02-03T06:17:05.900Z,61.48
2018-02-03T06:19:33.339Z,61.87
2018-02-03T06:22:00.810Z,62.28
2018-02-03T06:24:28.323Z,62.60
2018-02-03T06:26:55.773Z,62.50
2018-02-03T06:29:23.239Z,62.39
2018-02-03T06:31:50.721Z,62.35
2018-02-03T06:34:18.159Z,62.08
2018-02-03T06:36:45.639Z,62.52
2018-02-03T06:39:13.150Z,62.49
2018-02-03T06:41:41.354Z,62.86
2018-02-03T06:44:08.800Z,62.96
2018-02-03T06:46:36.321Z,62.75
2018-02-03T06:49:03.814Z,62.56
2018-02-03T06:51:31.264Z,62.19
2018-02-03T06:53:58.711Z,61.72
2018-02-03T06:56:26.190Z,61.51
2018-02-03T06:58:53.672Z,61.83
2018-02-03T07:01:21.132Z,61.88
2018-02-03T07:03:48.583Z,62.15
2018-02-03T07:06:16.062Z,61.36
2018-02-03T07:08:43.540Z,61.66
2018-02-03T07:11:10.988Z,61.83
2018-02-03T07:13:38.477Z,61.75
2018-02-03T07:16:06.012Z,61.27
2018-02-03T07:18:33.500Z,61.32
2018-02-03T07:21:00.967Z,61.29
2018-02-03T07:23:28.451Z,61.29
2018-02-03T07:25:57.036Z,61.53
2018-02-03T07:28:24.494Z,61.42
2018-02-03T07:30:51.984Z,61.82
2018-02-03T07:33:19.441Z,61.93
2018-02-03T07:35:46.899Z,61.56
2018-02-03T07:38:14.430Z,61.36
2018-02-03T07:40:41.879Z,61.37
2018-02-03T07:43:09.335Z,61.61
2018-02-03T07:45:36.813Z,61.84
2018-02-03T07:48:04.282Z,61.28
2018-02-03T07:50:31.778Z,61.09
2018-02-03T07:52:59.272Z,60.72
2018-02-03T07:55:26.748Z,60.58
2018-02-03T07:57:54.228Z,60.50
2018-02-03T08:00:21.748Z,60.65
2018-02-03T08:02:49.194Z,60.65
2018-02-03T08:05:16.666Z,60.74
2018-02-03T08:07:44.177Z,60.34
2018-02-03T08:10:11.618Z,59.86
2018-02-03T08:12:39.081Z,59.61
2018-02-03T08:15:06.547Z,59.69
2018-02-03T08:20:00.919Z,58.98
2018-02-03T08:22:28.371Z,58.90
2018-02-03T08:24:55.852Z,59.11
2018-02-03T08:27:23.309Z,58.73
2018-02-03T08:29:50.785Z,58.81
2018-02-03T08:32:18.329Z,58.31
2018-02-03T08:34:45.785Z,58.20
2018-02-03T08:37:13.307Z,57.56
2018-02-03T08:39:40.781Z,57.01
2018-02-03T08:42:08.258Z,56.76
2018-02-03T08:44:35.723Z,56.79
2018-02-03T08:47:03.228Z,56.73
2018-02-03T08:49:30.722Z,56.86
2018-02-03T08:51:58.163Z,56.46
2018-02-03T08:54:25.623Z,56.79
2018-02-03T08:56:53.085Z,56.95
2018-02-03T08:59:20.546Z,56.71
2018-02-03T09:01:48.017Z,57.18
2018-02-03T09:04:15.503Z,56.76
2018-02-03T09:06:43.000Z,56.19
2018-02-03T09:09:10.476Z,56.24
2018-02-03T09:11:37.929Z,56.90
2018-02-03T09:14:05.462Z,56.05
2018-02-03T09:16:32.952Z,55.57
2018-02-03T09:19:00.422Z,56.41
2018-02-03T09:21:27.895Z,57.14
2018-02-03T09:23:55.372Z,57.36
2018-02-03T09:26:22.869Z,56.61
2018-02-03T09:28:50.375Z,56.07
2018-02-03T09:31:17.828Z,56.55
2018-02-03T09:33:45.303Z,56.56
2018-02-03T09:36:12.752Z,56.42
2018-02-03T09:38:40.260Z,56.63
2018-02-03T09:41:07.707Z,56.54
2018-02-03T09:43:35.163Z,56.98
2018-02-03T09:46:02.624Z,56.93
2018-02-03T09:48:30.104Z,56.96
2018-02-03T09:50:58.829Z,57.09
2018-02-03T09:53:26.328Z,57.50
2018-02-03T09:55:54.722Z,57.09
2018-02-03T09:58:22.210Z,56.95
2018-02-03T10:00:49.732Z,56.95
2018-02-03T10:03:17.209Z,56.85
2018-02-03T10:05:44.706Z,57.07
2018-02-03T10:08:12.188Z,56.85
2018-02-03T10:10:39.644Z,56.66
2018-02-03T10:13:07.110Z,56.78
2018-02-03T10:15:34.592Z,56.59
2018-02-03T10:18:02.071Z,56.54
2018-02-03T10:20:29.599Z,56.20
2018-02-03T10:22:57.060Z,55.95
2018-02-03T10:25:24.515Z,56.20
2018-02-03T10:27:51.977Z,55.50
2018-02-03T10:30:19.494Z,55.30
2018-02-03T10:32:47.029Z,56.30
2018-02-03T10:35:14.563Z,56.14
2018-02-03T10:37:42.038Z,56.30
2018-02-03T10:40:09.533Z,55.99
2018-02-03T10:42:37.148Z,55.87
2018-02-03T10:45:04.644Z,56.18
2018-02-03T10:47:32.111Z,56.92
2018-02-03T10:49:59.615Z,56.79
2018-02-03T10:52:27.103Z,56.57
2018-02-03T10:54:54.616Z,56.62
2018-02-03T10:57:22.107Z,56.77
2018-02-03T10:59:49.623Z,57.16
2018-02-03T11:02:17.094Z,57.29
2018-02-03T11:04:44.545Z,57.38
2018-02-03T11:07:12.033Z,57.97
2018-02-03T11:09:39.499Z,58.19
2018-02-03T11:12:06.958Z,57.80
2018-02-03T11:14:34.451Z,57.77
2018-02-03T11:17:01.929Z,57.55
2018-02-03T11:19:29.455Z,57.38
2018-02-03T11:21:56.967Z,58.16
2018-02-03T11:24:24.434Z,58.39
2018-02-03T11:26:51.909Z,58.59
2018-02-03T11:29:19.430Z,58.25
2018-02-03T11:31:46.927Z,57.82
2018-02-03T11:34:14.453Z,58.11
2018-02-03T11:36:41.925Z,58.15
2018-02-03T11:39:09.433Z,58.42
2018-02-03T11:41:36.931Z,58.33
2018-02-03T11:44:04.408Z,58.77
2018-02-03T11:46:31.906Z,59.10
2018-02-03T11:48:59.390Z,58.90
2018-02-03T11:51:26.831Z,58.76
2018-02-03T11:53:54.320Z,58.84
2018-02-03T11:56:21.799Z,59.22
2018-02-03T11:58:49.263Z,59.54
2018-02-03T12:01:16.758Z,59.82
2018-02-03T12:03:44.215Z,60.49
2018-02-03T12:06:11.670Z,60.35
2018-02-03T12:08:39.203Z,60.35
2018-02-03T12:11:06.706Z,59.81
2018-02-03T12:13:34.154Z,60.38
2018-02-03T12:16:01.676Z,60.20
2018-02-03T12:18:29.137Z,60.53
2018-02-03T12:20:56.615Z,60.74
2018-02-03T12:23:24.082Z,60.96
2018-02-03T12:25:51.593Z,60.99
2018-02-03T12:28:19.035Z,60.89
2018-02-03T12:30:46.520Z,61.37
2018-02-03T12:33:14.848Z,61.77
2018-02-03T12:35:42.315Z,62.26
2018-02-03T12:38:09.809Z,62.10
2018-02-03T12:40:37.333Z,62.32
2018-02-03T12:43:04.775Z,62.00
2018-02-03T12:45:32.290Z,62.36
2018-02-03T12:47:59.750Z,62.28
2018-02-03T12:50:27.204Z,62.73
2018-02-03T12:52:54.725Z,62.95
2018-02-03T12:55:22.192Z,63.07
2018-02-03T12:57:49.711Z,63.24
2018-02-03T13:00:17.179Z,63.28
2018-02-03T13:02:44.663Z,63.61
2018-02-03T13:05:12.178Z,63.79
2018-02-03T13:07:39.666Z,63.76
2018-02-03T13:10:07.176Z,63.93
2018-02-03T13:12:34.739Z,64.46
2018-02-03T13:15:02.203Z,64.32
2018-02-03T13:17:29.662Z,64.14
2018-02-03T13:19:57.203Z,64.21
2018-02-03T13:22:24.724Z,64.55
2018-02-03T13:24:52.227Z,64.79
2018-02-03T13:27:19.736Z,64.90
2018-02-03T13:29:47.197Z,64.73
2018-02-03T13:32:14.727Z,64.71
2018-02-03T13:34:42.243Z,64.75
2018-02-03T13:37:09.748Z,64.57
2018-02-03T13:39:37.232Z,64.70
2018-02-03T13:42:04.780Z,64.89
2018-02-03T13:44:32.255Z,65.30
2018-02-03T13:46:59.743Z,65.00
2018-02-03T13:49:27.268Z,65.58
2018-02-03T13:51:54.750Z,65.14
2018-02-03T13:54:22.250Z,65.36
2018-02-03T13:56:49.717Z,65.34
2018-02-03T13:59:17.186Z,65.16
2018-02-03T14:01:44.688Z,65.26
2018-02-03T14:04:12.188Z,65.57
2018-02-03T14:06:39.666Z,65.55
2018-02-03T14:09:07.134Z,65.38
2018-02-03T14:11:34.695Z,65.31
2018-02-03T14:14:02.180Z,65.24
2018-02-03T14:16:29.688Z,65.16
2018-02-03T14:18:57.170Z,65.20
2018-02-03T14:21:24.660Z,65.67
2018-02-03T14:23:57.554Z,65.36
2018-02-03T14:26:25.088Z,65.58
2018-02-03T14:28:52.570Z,65.65
2018-02-03T14:31:20.054Z,65.75
2018-02-03T14:33:47.579Z,65.93
2018-02-03T14:36:15.036Z,65.74
2018-02-03T14:38:42.496Z,65.65
2018-02-03T14:41:10.015Z,65.70
2018-02-03T14:43:37.529Z,65.38
2018-02-03T14:46:05.059Z,65.45
2018-02-03T14:48:32.535Z,65.25
2018-02-03T14:51:00.078Z,65.71
2018-02-03T14:53:27.555Z,66.00
2018-02-03T14:55:55.049Z,66.70
2018-02-03T14:58:22.603Z,66.92
2018-02-03T15:00:50.171Z,67.43
2018-02-03T15:03:17.659Z,67.63
2018-02-03T15:05:45.407Z,67.99
2018-02-03T15:08:12.887Z,67.94
2018-02-03T15:10:40.363Z,67.83
2018-02-03T15:13:07.895Z,68.41
2018-02-03T15:15:35.393Z,68.67
2018-02-03T15:18:03.909Z,69.08
2018-02-03T15:20:31.397Z,69.07
2018-02-03T15:22:58.858Z,69.64
2018-02-03T15:25:26.321Z,69.66
2018-02-03T15:27:53.798Z,69.63
2018-02-03T15:30:21.260Z,70.01
2018-02-03T15:32:48.714Z,70.09
2018-02-03T15:35:16.204Z,70.37
2018-02-03T15:37:43.698Z,70.42
2018-02-03T15:40:11.236Z,70.57
2018-02-03T15:42:38.729Z,70.87
2018-02-03T15:45:06.199Z,70.83
2018-02-03T15:47:33.687Z,71.03
2018-02-03T15:50:01.185Z,71.07
2018-02-03T15:52:28.754Z,71.02
2018-02-03T15:54:56.257Z,71.13
2018-02-03T15:57:23.763Z,71.58
2018-02-03T15:59:51.268Z,71.21
2018-02-03T16:02:18.732Z,71.39
2018-02-03T16:04:46.233Z,71.38
2018-02-03T16:07:13.739Z,71.77
2018-02-03T16:09:41.213Z,71.88
2018-02-03T16:12:08.983Z,71.81
2018-02-03T16:14:36.485Z,71.72
2018-02-03T16:17:03.986Z,71.97
2018-02-03T16:19:31.524Z,72.05
2018-02-03T16:21:58.999Z,72.12
2018-02-03T16:24:26.531Z,72.33
2018-02-03T16:26:54.040Z,72.13
2018-02-03T16:29:21.531Z,72.41
2018-02-03T16:31:49.057Z,72.55
2018-02-03T16:34:16.544Z,72.61
2018-02-03T16:36:44.004Z,72.21
2018-02-03T16:39:11.505Z,72.47
2018-02-03T16:41:38.967Z,72.58
2018-02-03T16:44:06.502Z,72.71
2018-02-03T16:46:34.098Z,72.80
2018-02-03T16:49:01.564Z,72.54
2018-02-03T16:51:29.044Z,72.94
2018-02-03T16:53:56.533Z,72.90
2018-02-03T16:56:35.702Z,73.05
2018-02-03T16:59:03.191Z,72.97
2018-02-03T17:01:30.667Z,72.82
2018-02-03T17:03:58.211Z,73.20
2018-02-03T17:06:25.835Z,73.47
2018-02-03T17:08:53.376Z,73.37
2018-02-03T17:11:20.927Z,73.00
2018-02-03T17:13:48.395Z,73.61
2018-02-03T17:16:15.871Z,73.70
2018-02-03T17:18:43.435Z,73.70
2018-02-03T17:21:10.908Z,73.67
2018-02-03T17:23:38.580Z,73.72
2018-02-03T17:26:06.143Z,73.62
2018-02-03T17:28:33.662Z,73.86
2018-02-03T17:31:01.185Z,73.78
2018-02-03T17:33:28.692Z,74.10
2018-02-03T17:35:56.147Z,73.98
2018-02-03T17:38:30.181Z,74.05
2018-02-03T17:40:57.677Z,74.12
2018-02-03T17:43:25.151Z,74.21
2018-02-03T17:48:55.678Z,74.29
2018-02-03T17:51:23.197Z,74.36
2018-02-03T17:53:50.680Z,74.28
2018-02-03T17:56:23.686Z,74.37
2018-02-03T17:58:51.195Z,74.35
2018-02-03T18:01:18.680Z,74.50
2018-02-03T18:03:46.194Z,74.64
2018-02-03T18:06:13.711Z,74.93
2018-02-03T18:08:41.290Z,74.73
2018-02-03T18:11:08.741Z,74.85
2018-02-03T18:13:36.239Z,74.98
2018-02-03T18:16:03.703Z,74.66
2018-02-03T18:18:31.200Z,74.63
2018-02-03T18:20:58.697Z,74.81
2018-02-03T18:23:26.203Z,74.62
2018-02-03T18:25:53.723Z,74.75
2018-02-03T18:28:21.208Z,74.62
2018-02-03T18:30:48.705Z,74.82
2018-02-03T18:33:16.166Z,74.97
2018-02-03T18:35:43.667Z,74.90
2018-02-03T18:38:11.168Z,74.82
2018-02-03T18:40:38.638Z,74.90
2018-02-03T18:43:06.141Z,74.83
2018-02-03T18:45:44.831Z,74.75
2018-02-03T18:48:12.338Z,74.80
2018-02-03T18:50:39.808Z,74.70
2018-02-03T18:53:07.326Z,74.55
2018-02-03T18:55:34.822Z,74.78
2018-02-03T18:58:02.344Z,74.28
2018-02-03T19:00:29.875Z,74.25
2018-02-03T19:02:57.441Z,74.21
2018-02-03T19:05:24.926Z,74.22
2018-02-03T19:07:52.435Z,74.29
2018-02-03T19:10:19.915Z,74.23
2018-02-03T19:12:47.378Z,74.00
2018-02-03T19:15:14.899Z,73.91
2018-02-03T19:17:42.397Z,74.16
2018-02-03T19:20:09.964Z,73.65
2018-02-03T19:22:37.439Z,73.97
2018-02-03T19:25:04.984Z,74.13
2018-02-03T19:27:32.533Z,73.74
2018-02-03T19:30:00.022Z,73.90
2018-02-03T19:32:27.523Z,74.31
2018-02-03T19:34:55.000Z,74.28
2018-02-03T19:37:22.563Z,74.42
2018-02-03T19:39:50.020Z,74.39
2018-02-03T19:42:17.482Z,74.58
2018-02-03T19:44:45.054Z,74.86
2018-02-03T19:47:12.581Z,74.94
2018-02-03T19:49:40.082Z,74.98
2018-02-03T19:52:07.609Z,74.93
2018-02-03T19:54:35.151Z,74.56
2018-02-03T19:57:02.635Z,74.99
2018-02-03T19:59:30.099Z,74.95
2018-02-03T20:01:57.608Z,74.48
2018-02-03T20:04:25.125Z,74.81
2018-02-03T20:06:52.583Z,74.73
2018-02-03T20:09:20.066Z,74.66
2018-02-03T20:11:47.605Z,74.57
2018-02-03T20:14:15.143Z,74.56
2018-02-03T20:16:42.640Z,74.40
2018-02-03T20:19:10.178Z,74.17
2018-02-03T20:21:37.681Z,74.06
2018-02-03T20:24:05.174Z,74.20
2018-02-03T20:26:32.741Z,74.25
2018-02-03T20:29:00.356Z,74.40
2018-02-03T20:31:27.837Z,74.60
2018-02-03T20:33:55.326Z,74.63
2018-02-03T20:36:22.784Z,74.30
2018-02-03T20:38:50.298Z,73.89
2018-02-03T20:41:17.816Z,74.28
2018-02-03T20:43:45.357Z,74.51
2018-02-03T20:46:12.918Z,74.55
2018-02-03T20:48:40.392Z,74.49
2018-02-03T20:51:07.900Z,74.52
2018-02-03T20:53:41.116Z,74.46
2018-02-03T20:56:08.688Z,74.43
2018-02-03T20:58:36.182Z,74.25
2018-02-03T21:01:03.696Z,74.08
2018-02-03T21:03:31.201Z,74.03
2018-02-03T21:05:58.745Z,73.33
2018-02-03T21:08:26.316Z,73.39
2018-02-03T21:10:53.853Z,73.50
2018-02-03T21:13:21.362Z,73.41
2018-02-03T21:15:48.825Z,72.86
2018-02-03T21:18:16.278Z,73.34
2018-02-03T21:20:43.766Z,73.06
2018-02-03T21:23:11.258Z,73.15
2018-02-03T21:25:38.786Z,73.49
2018-02-03T21:28:06.311Z,73.86
2018-02-03T21:30:33.800Z,73.63
2018-02-03T21:33:01.371Z,74.16
2018-02-03T21:35:28.963Z,74.20
2018-02-03T21:37:56.438Z,74.25
2018-02-03T21:40:23.968Z,74.64
2018-02-03T21:42:51.515Z,74.55
2018-02-03T21:45:19.041Z,74.88
2018-02-03T21:47:46.558Z,74.28
2018-02-03T21:50:14.104Z,75.09
2018-02-03T21:52:41.627Z,74.85
2018-02-03T21:55:09.124Z,75.03
2018-02-03T21:57:36.603Z,75.16
2018-02-03T22:00:04.145Z,74.63
2018-02-03T22:02:31.665Z,74.71
2018-02-03T22:04:59.147Z,74.58
2018-02-03T22:07:26.637Z,74.60
2018-02-03T22:09:54.143Z,74.49
2018-02-03T22:12:21.666Z,74.36
2018-02-03T22:14:49.171Z,74.36
2018-02-03T22:17:16.676Z,74.89
2018-02-03T22:19:44.179Z,74.61
2018-02-03T22:22:11.729Z,74.58
2018-02-03T22:24:39.281Z,74.65
2018-02-03T22:27:06.762Z,75.04
2018-02-03T22:29:34.239Z,75.47
2018-02-03T22:32:01.720Z,75.15
2018-02-03T22:34:29.221Z,75.19
2018-02-03T22:36:56.702Z,75.20
2018-02-03T22:39:24.236Z,75.31
2018-02-03T22:41:51.688Z,75.28
2018-02-03T22:44:19.181Z,74.80
2018-02-03T22:46:46.667Z,74.55
2018-02-03T22:49:14.170Z,75.03
2018-02-03T22:51:41.658Z,74.84
2018-02-03T22:54:09.231Z,74.91
2018-02-03T22:56:36.900Z,75.26
2018-02-03T22:59:04.363Z,75.28
2018-02-03T23:01:31.838Z,75.30
2018-02-03T23:03:59.359Z,74.38
2018-02-03T23:06:26.889Z,73.84
2018-02-03T23:08:54.367Z,74.34
2018-02-03T23:11:21.857Z,74.29
2018-02-03T23:13:49.321Z,73.97
2018-02-03T23:16:16.863Z,73.85
2018-02-03T23:18:44.331Z,74.06
2018-02-03T23:21:11.817Z,74.16
2018-02-03T23:23:39.340Z,73.96
2018-02-03T23:26:06.903Z,73.84
2018-02-03T23:28:34.463Z,73.66
2018-02-03T23:31:01.927Z,73.68
2018-02-03T23:33:29.454Z,73.50
2018-02-03T23:35:57.452Z,73.62
2018-02-03T23:38:24.965Z,73.88
2018-02-03T23:40:52.505Z,74.15
2018-02-03T23:43:19.994Z,72.72
2018-02-03T23:45:47.483Z,72.20
2018-02-03T23:48:14.966Z,72.56
2018-02-03T23:50:42.521Z,72.38
2018-02-03T23:53:10.032Z,72.54
2018-02-03T23:55:37.509Z,72.49
2018-02-03T23:58:04.970Z,72.17
